sensor_id;sensor_type;location;lat;lon;timestamp;P1;durP1;ratioP1;P2;durP2;ratioP2
3175;SDS011;1599;51.564;6.990;2023-11-19T00:00:42;12.63;;;8.30;;
3175;SDS011;1599;51.564;6.990;2023-11-19T00:03:08;13.27;;;10.43;;
3175;SDS011;1599;51.564;6.990;2023-11-19T00:05:35;12.13;;;8.80;;
3175;SDS011;1599;51.564;6.990;2023-11-19T00:08:01;14.33;;;9.70;;
3175;SDS011;1599;51.564;6.990;2023-11-19T00:10:27;11.43;;;8.87;;
3175;SDS011;1599;51.564;6.990;2023-11-19T00:12:53;19.83;;;11.20;;
3175;SDS011;1599;51.564;6.990;2023-11-19T00:15:18;12.80;;;9.43;;
3175;SDS011;1599;51.564;6.990;2023-11-19T00:17:44;15.27;;;10.73;;
3175;SDS011;1599;51.564;6.990;2023-11-19T00:20:12;16.80;;;11.03;;
3175;SDS011;1599;51.564;6.990;2023-11-19T00:22:43;17.03;;;12.97;;
3175;SDS011;1599;51.564;6.990;2023-11-19T00:25:09;14.90;;;10.90;;
3175;SDS011;1599;51.564;6.990;2023-11-19T00:27:35;16.73;;;11.70;;
3175;SDS011;1599;51.564;6.990;2023-11-19T00:30:02;16.23;;;11.87;;
3175;SDS011;1599;51.564;6.990;2023-11-19T00:32:32;26.30;;;14.13;;
3175;SDS011;1599;51.564;6.990;2023-11-19T00:34:58;21.70;;;13.87;;
3175;SDS011;1599;51.564;6.990;2023-11-19T00:37:24;22.33;;;14.70;;
3175;SDS011;1599;51.564;6.990;2023-11-19T00:39:49;16.97;;;13.40;;
3175;SDS011;1599;51.564;6.990;2023-11-19T00:42:16;27.47;;;15.00;;
3175;SDS011;1599;51.564;6.990;2023-11-19T00:44:42;22.10;;;13.97;;
3175;SDS011;1599;51.564;6.990;2023-11-19T00:47:08;17.80;;;13.43;;
3175;SDS011;1599;51.564;6.990;2023-11-19T00:49:34;21.87;;;14.93;;
3175;SDS011;1599;51.564;6.990;2023-11-19T00:52:00;23.93;;;15.60;;
3175;SDS011;1599;51.564;6.990;2023-11-19T00:54:27;18.07;;;13.60;;
3175;SDS011;1599;51.564;6.990;2023-11-19T00:56:52;21.57;;;14.43;;
3175;SDS011;1599;51.564;6.990;2023-11-19T00:59:18;19.50;;;14.13;;
3175;SDS011;1599;51.564;6.990;2023-11-19T01:01:44;16.07;;;12.90;;
3175;SDS011;1599;51.564;6.990;2023-11-19T01:04:10;21.57;;;12.93;;
3175;SDS011;1599;51.564;6.990;2023-11-19T01:06:36;20.97;;;13.80;;
3175;SDS011;1599;51.564;6.990;2023-11-19T01:09:02;22.30;;;12.70;;
3175;SDS011;1599;51.564;6.990;2023-11-19T01:11:28;19.07;;;12.00;;
3175;SDS011;1599;51.564;6.990;2023-11-19T01:13:54;17.87;;;12.57;;
3175;SDS011;1599;51.564;6.990;2023-11-19T01:16:20;22.27;;;12.60;;
3175;SDS011;1599;51.564;6.990;2023-11-19T01:18:49;15.37;;;11.37;;
3175;SDS011;1599;51.564;6.990;2023-11-19T01:21:15;15.10;;;10.87;;
3175;SDS011;1599;51.564;6.990;2023-11-19T01:23:44;13.90;;;11.10;;
3175;SDS011;1599;51.564;6.990;2023-11-19T01:26:10;16.60;;;10.13;;
3175;SDS011;1599;51.564;6.990;2023-11-19T01:28:39;11.07;;;9.07;;
3175;SDS011;1599;51.564;6.990;2023-11-19T01:31:08;13.53;;;10.27;;
3175;SDS011;1599;51.564;6.990;2023-11-19T01:33:34;16.20;;;10.27;;
3175;SDS011;1599;51.564;6.990;2023-11-19T01:36:01;15.70;;;9.93;;
3175;SDS011;1599;51.564;6.990;2023-11-19T01:38:29;12.00;;;9.17;;
3175;SDS011;1599;51.564;6.990;2023-11-19T01:40:56;12.93;;;9.67;;
3175;SDS011;1599;51.564;6.990;2023-11-19T01:43:35;12.60;;;9.27;;
3175;SDS011;1599;51.564;6.990;2023-11-19T01:46:04;18.07;;;10.43;;
3175;SDS011;1599;51.564;6.990;2023-11-19T01:48:32;11.50;;;9.23;;
3175;SDS011;1599;51.564;6.990;2023-11-19T01:51:04;12.17;;;9.67;;
3175;SDS011;1599;51.564;6.990;2023-11-19T01:53:31;14.43;;;10.07;;
3175;SDS011;1599;51.564;6.990;2023-11-19T01:56:01;14.30;;;9.93;;
3175;SDS011;1599;51.564;6.990;2023-11-19T01:58:29;14.10;;;8.53;;
3175;SDS011;1599;51.564;6.990;2023-11-19T02:00:56;13.03;;;10.07;;
3175;SDS011;1599;51.564;6.990;2023-11-19T02:03:22;14.50;;;8.73;;
3175;SDS011;1599;51.564;6.990;2023-11-19T02:05:51;10.80;;;9.00;;
3175;SDS011;1599;51.564;6.990;2023-11-19T02:08:18;10.13;;;8.03;;
3175;SDS011;1599;51.564;6.990;2023-11-19T02:10:44;11.37;;;8.33;;
3175;SDS011;1599;51.564;6.990;2023-11-19T02:13:10;16.90;;;9.20;;
3175;SDS011;1599;51.564;6.990;2023-11-19T02:15:36;10.43;;;7.30;;
3175;SDS011;1599;51.564;6.990;2023-11-19T02:18:17;10.03;;;8.03;;
3175;SDS011;1599;51.564;6.990;2023-11-19T02:20:49;12.17;;;7.77;;
3175;SDS011;1599;51.564;6.990;2023-11-19T02:23:15;10.57;;;8.37;;
3175;SDS011;1599;51.564;6.990;2023-11-19T02:25:42;12.97;;;7.33;;
3175;SDS011;1599;51.564;6.990;2023-11-19T02:28:17;14.40;;;9.10;;
3175;SDS011;1599;51.564;6.990;2023-11-19T02:30:43;13.87;;;8.00;;
3175;SDS011;1599;51.564;6.990;2023-11-19T02:33:09;12.93;;;7.83;;
3175;SDS011;1599;51.564;6.990;2023-11-19T02:35:34;17.17;;;7.27;;
3175;SDS011;1599;51.564;6.990;2023-11-19T02:38:00;9.93;;;7.00;;
3175;SDS011;1599;51.564;6.990;2023-11-19T02:40:28;16.83;;;8.53;;
3175;SDS011;1599;51.564;6.990;2023-11-19T02:42:54;14.03;;;6.70;;
3175;SDS011;1599;51.564;6.990;2023-11-19T02:45:21;18.67;;;7.97;;
3175;SDS011;1599;51.564;6.990;2023-11-19T02:47:53;12.27;;;7.67;;
3175;SDS011;1599;51.564;6.990;2023-11-19T02:50:20;12.30;;;7.20;;
3175;SDS011;1599;51.564;6.990;2023-11-19T02:52:53;17.27;;;7.60;;
3175;SDS011;1599;51.564;6.990;2023-11-19T02:55:21;12.23;;;7.80;;
3175;SDS011;1599;51.564;6.990;2023-11-19T02:57:49;12.77;;;7.10;;
3175;SDS011;1599;51.564;6.990;2023-11-19T03:00:16;17.13;;;7.80;;
3175;SDS011;1599;51.564;6.990;2023-11-19T03:02:50;15.00;;;7.10;;
3175;SDS011;1599;51.564;6.990;2023-11-19T03:05:24;17.50;;;6.57;;
3175;SDS011;1599;51.564;6.990;2023-11-19T03:07:51;17.50;;;8.07;;
3175;SDS011;1599;51.564;6.990;2023-11-19T03:10:17;13.60;;;6.70;;
3175;SDS011;1599;51.564;6.990;2023-11-19T03:12:44;12.87;;;6.90;;
3175;SDS011;1599;51.564;6.990;2023-11-19T03:15:10;19.93;;;6.53;;
3175;SDS011;1599;51.564;6.990;2023-11-19T03:17:40;13.53;;;6.00;;
3175;SDS011;1599;51.564;6.990;2023-11-19T03:20:08;15.57;;;6.23;;
3175;SDS011;1599;51.564;6.990;2023-11-19T03:22:40;13.87;;;5.80;;
3175;SDS011;1599;51.564;6.990;2023-11-19T03:25:07;17.23;;;5.53;;
3175;SDS011;1599;51.564;6.990;2023-11-19T03:27:37;12.07;;;5.20;;
3175;SDS011;1599;51.564;6.990;2023-11-19T03:30:05;16.47;;;5.53;;
3175;SDS011;1599;51.564;6.990;2023-11-19T03:32:32;14.87;;;5.13;;
3175;SDS011;1599;51.564;6.990;2023-11-19T03:34:58;13.40;;;5.03;;
3175;SDS011;1599;51.564;6.990;2023-11-19T03:37:24;14.77;;;5.60;;
3175;SDS011;1599;51.564;6.990;2023-11-19T03:39:51;17.13;;;5.87;;
3175;SDS011;1599;51.564;6.990;2023-11-19T03:42:20;10.55;;;5.95;;
3175;SDS011;1599;51.564;6.990;2023-11-19T03:44:46;8.80;;;5.47;;
3175;SDS011;1599;51.564;6.990;2023-11-19T03:47:14;13.83;;;5.50;;
3175;SDS011;1599;51.564;6.990;2023-11-19T03:49:40;15.80;;;5.80;;
3175;SDS011;1599;51.564;6.990;2023-11-19T03:52:05;11.40;;;5.50;;
3175;SDS011;1599;51.564;6.990;2023-11-19T03:54:31;11.57;;;5.40;;
3175;SDS011;1599;51.564;6.990;2023-11-19T03:56:57;14.43;;;6.23;;
3175;SDS011;1599;51.564;6.990;2023-11-19T03:59:25;15.40;;;5.50;;
3175;SDS011;1599;51.564;6.990;2023-11-19T04:01:50;14.30;;;5.90;;
3175;SDS011;1599;51.564;6.990;2023-11-19T04:04:18;23.00;;;7.40;;
3175;SDS011;1599;51.564;6.990;2023-11-19T04:06:44;25.03;;;6.20;;
3175;SDS011;1599;51.564;6.990;2023-11-19T04:09:10;19.90;;;5.87;;
3175;SDS011;1599;51.564;6.990;2023-11-19T04:11:35;21.40;;;6.73;;
3175;SDS011;1599;51.564;6.990;2023-11-19T04:14:01;21.87;;;6.50;;
3175;SDS011;1599;51.564;6.990;2023-11-19T04:16:27;23.23;;;5.80;;
3175;SDS011;1599;51.564;6.990;2023-11-19T04:18:53;14.87;;;6.20;;
3175;SDS011;1599;51.564;6.990;2023-11-19T04:21:19;20.33;;;5.67;;
3175;SDS011;1599;51.564;6.990;2023-11-19T04:23:45;30.13;;;6.70;;
3175;SDS011;1599;51.564;6.990;2023-11-19T04:26:11;18.17;;;5.50;;
3175;SDS011;1599;51.564;6.990;2023-11-19T04:28:37;20.93;;;5.03;;
3175;SDS011;1599;51.564;6.990;2023-11-19T04:31:03;28.23;;;6.27;;
3175;SDS011;1599;51.564;6.990;2023-11-19T04:33:29;16.00;;;5.63;;
3175;SDS011;1599;51.564;6.990;2023-11-19T04:35:55;17.20;;;6.47;;
3175;SDS011;1599;51.564;6.990;2023-11-19T04:38:21;27.27;;;5.90;;
3175;SDS011;1599;51.564;6.990;2023-11-19T04:40:46;27.10;;;5.80;;
3175;SDS011;1599;51.564;6.990;2023-11-19T04:43:12;26.07;;;6.00;;
3175;SDS011;1599;51.564;6.990;2023-11-19T04:45:38;22.37;;;5.60;;
3175;SDS011;1599;51.564;6.990;2023-11-19T04:48:04;20.43;;;6.37;;
3175;SDS011;1599;51.564;6.990;2023-11-19T04:50:30;24.07;;;5.97;;
3175;SDS011;1599;51.564;6.990;2023-11-19T04:52:56;21.40;;;7.07;;
3175;SDS011;1599;51.564;6.990;2023-11-19T04:55:22;21.57;;;5.30;;
3175;SDS011;1599;51.564;6.990;2023-11-19T04:57:47;17.57;;;4.63;;
3175;SDS011;1599;51.564;6.990;2023-11-19T05:00:13;25.30;;;5.73;;
3175;SDS011;1599;51.564;6.990;2023-11-19T05:02:39;17.27;;;5.13;;
3175;SDS011;1599;51.564;6.990;2023-11-19T05:05:05;26.67;;;7.03;;
3175;SDS011;1599;51.564;6.990;2023-11-19T05:07:31;17.70;;;5.60;;
3175;SDS011;1599;51.564;6.990;2023-11-19T05:09:57;22.97;;;5.50;;
3175;SDS011;1599;51.564;6.990;2023-11-19T05:12:23;30.60;;;6.03;;
3175;SDS011;1599;51.564;6.990;2023-11-19T05:14:49;30.57;;;7.23;;
3175;SDS011;1599;51.564;6.990;2023-11-19T05:17:18;28.73;;;6.57;;
3175;SDS011;1599;51.564;6.990;2023-11-19T05:19:44;27.80;;;7.13;;
3175;SDS011;1599;51.564;6.990;2023-11-19T05:22:10;29.13;;;6.90;;
3175;SDS011;1599;51.564;6.990;2023-11-19T05:24:36;24.50;;;7.10;;
3175;SDS011;1599;51.564;6.990;2023-11-19T05:27:02;23.63;;;6.90;;
3175;SDS011;1599;51.564;6.990;2023-11-19T05:29:27;35.83;;;7.87;;
3175;SDS011;1599;51.564;6.990;2023-11-19T05:31:54;27.43;;;7.80;;
3175;SDS011;1599;51.564;6.990;2023-11-19T05:34:20;41.23;;;8.10;;
3175;SDS011;1599;51.564;6.990;2023-11-19T05:36:46;29.50;;;7.10;;
3175;SDS011;1599;51.564;6.990;2023-11-19T05:39:12;24.87;;;7.70;;
3175;SDS011;1599;51.564;6.990;2023-11-19T05:41:38;35.33;;;8.00;;
3175;SDS011;1599;51.564;6.990;2023-11-19T05:44:04;28.07;;;6.90;;
3175;SDS011;1599;51.564;6.990;2023-11-19T05:46:29;30.33;;;6.90;;
3175;SDS011;1599;51.564;6.990;2023-11-19T05:48:55;29.03;;;7.53;;
3175;SDS011;1599;51.564;6.990;2023-11-19T05:51:21;25.43;;;6.83;;
3175;SDS011;1599;51.564;6.990;2023-11-19T05:53:48;19.00;;;5.50;;
3175;SDS011;1599;51.564;6.990;2023-11-19T05:56:15;26.00;;;6.80;;
3175;SDS011;1599;51.564;6.990;2023-11-19T05:58:46;29.20;;;7.00;;
3175;SDS011;1599;51.564;6.990;2023-11-19T06:01:13;19.80;;;7.00;;
3175;SDS011;1599;51.564;6.990;2023-11-19T06:03:38;25.30;;;7.37;;
3175;SDS011;1599;51.564;6.990;2023-11-19T06:06:04;36.57;;;7.77;;
3175;SDS011;1599;51.564;6.990;2023-11-19T06:08:31;24.13;;;5.90;;
3175;SDS011;1599;51.564;6.990;2023-11-19T06:10:57;27.00;;;7.33;;
3175;SDS011;1599;51.564;6.990;2023-11-19T06:13:23;28.53;;;7.07;;
3175;SDS011;1599;51.564;6.990;2023-11-19T06:15:50;24.93;;;7.50;;
3175;SDS011;1599;51.564;6.990;2023-11-19T06:18:16;30.33;;;8.60;;
3175;SDS011;1599;51.564;6.990;2023-11-19T06:20:44;26.80;;;7.07;;
3175;SDS011;1599;51.564;6.990;2023-11-19T06:23:10;18.87;;;5.40;;
3175;SDS011;1599;51.564;6.990;2023-11-19T06:25:36;27.77;;;6.07;;
3175;SDS011;1599;51.564;6.990;2023-11-19T06:28:02;28.07;;;6.80;;
3175;SDS011;1599;51.564;6.990;2023-11-19T06:30:28;28.60;;;6.00;;
3175;SDS011;1599;51.564;6.990;2023-11-19T06:32:55;28.47;;;7.27;;
3175;SDS011;1599;51.564;6.990;2023-11-19T06:35:21;38.77;;;7.43;;
3175;SDS011;1599;51.564;6.990;2023-11-19T06:37:47;24.07;;;6.40;;
3175;SDS011;1599;51.564;6.990;2023-11-19T06:40:13;28.17;;;5.73;;
3175;SDS011;1599;51.564;6.990;2023-11-19T06:42:40;30.73;;;6.83;;
3175;SDS011;1599;51.564;6.990;2023-11-19T06:45:06;30.60;;;7.83;;
3175;SDS011;1599;51.564;6.990;2023-11-19T06:47:32;24.30;;;5.90;;
3175;SDS011;1599;51.564;6.990;2023-11-19T06:49:58;21.63;;;6.30;;
3175;SDS011;1599;51.564;6.990;2023-11-19T06:52:24;24.17;;;6.90;;
3175;SDS011;1599;51.564;6.990;2023-11-19T06:54:50;33.23;;;8.43;;
3175;SDS011;1599;51.564;6.990;2023-11-19T06:57:16;27.23;;;6.40;;
3175;SDS011;1599;51.564;6.990;2023-11-19T06:59:42;24.73;;;7.03;;
3175;SDS011;1599;51.564;6.990;2023-11-19T07:02:08;25.77;;;6.70;;
3175;SDS011;1599;51.564;6.990;2023-11-19T07:04:34;37.40;;;7.17;;
3175;SDS011;1599;51.564;6.990;2023-11-19T07:06:59;22.57;;;6.17;;
3175;SDS011;1599;51.564;6.990;2023-11-19T07:09:25;25.10;;;6.40;;
3175;SDS011;1599;51.564;6.990;2023-11-19T07:11:51;18.77;;;7.57;;
3175;SDS011;1599;51.564;6.990;2023-11-19T07:14:18;40.97;;;8.23;;
3175;SDS011;1599;51.564;6.990;2023-11-19T07:16:44;32.33;;;7.30;;
3175;SDS011;1599;51.564;6.990;2023-11-19T07:19:11;21.57;;;6.17;;
3175;SDS011;1599;51.564;6.990;2023-11-19T07:21:37;33.80;;;7.30;;
3175;SDS011;1599;51.564;6.990;2023-11-19T07:24:09;25.30;;;7.63;;
3175;SDS011;1599;51.564;6.990;2023-11-19T07:26:40;37.13;;;7.70;;
3175;SDS011;1599;51.564;6.990;2023-11-19T07:29:08;25.47;;;6.57;;
3175;SDS011;1599;51.564;6.990;2023-11-19T07:31:34;32.40;;;6.80;;
3175;SDS011;1599;51.564;6.990;2023-11-19T07:34:00;32.83;;;6.53;;
3175;SDS011;1599;51.564;6.990;2023-11-19T07:36:26;27.13;;;6.00;;
3175;SDS011;1599;51.564;6.990;2023-11-19T07:38:51;31.50;;;7.63;;
3175;SDS011;1599;51.564;6.990;2023-11-19T07:41:18;26.10;;;7.57;;
3175;SDS011;1599;51.564;6.990;2023-11-19T07:43:45;28.80;;;6.80;;
3175;SDS011;1599;51.564;6.990;2023-11-19T07:46:14;25.93;;;6.20;;
3175;SDS011;1599;51.564;6.990;2023-11-19T07:48:40;27.40;;;7.47;;
3175;SDS011;1599;51.564;6.990;2023-11-19T07:51:07;25.13;;;6.63;;
3175;SDS011;1599;51.564;6.990;2023-11-19T07:53:33;30.13;;;5.77;;
3175;SDS011;1599;51.564;6.990;2023-11-19T07:55:59;24.97;;;5.30;;
3175;SDS011;1599;51.564;6.990;2023-11-19T07:58:25;24.00;;;6.30;;
3175;SDS011;1599;51.564;6.990;2023-11-19T08:00:51;27.00;;;6.97;;
3175;SDS011;1599;51.564;6.990;2023-11-19T08:03:17;30.17;;;7.70;;
3175;SDS011;1599;51.564;6.990;2023-11-19T08:05:49;25.80;;;6.43;;
3175;SDS011;1599;51.564;6.990;2023-11-19T08:08:15;32.70;;;5.87;;
3175;SDS011;1599;51.564;6.990;2023-11-19T08:10:41;38.43;;;7.70;;
3175;SDS011;1599;51.564;6.990;2023-11-19T08:13:09;23.63;;;7.20;;
3175;SDS011;1599;51.564;6.990;2023-11-19T08:15:36;30.77;;;7.13;;
3175;SDS011;1599;51.564;6.990;2023-11-19T08:18:02;32.77;;;7.23;;
3175;SDS011;1599;51.564;6.990;2023-11-19T08:20:28;25.63;;;6.13;;
3175;SDS011;1599;51.564;6.990;2023-11-19T08:22:53;24.17;;;5.20;;
3175;SDS011;1599;51.564;6.990;2023-11-19T08:25:19;22.33;;;6.23;;
3175;SDS011;1599;51.564;6.990;2023-11-19T08:27:45;30.43;;;7.00;;
3175;SDS011;1599;51.564;6.990;2023-11-19T08:30:11;20.23;;;5.70;;
3175;SDS011;1599;51.564;6.990;2023-11-19T08:32:38;22.47;;;5.43;;
3175;SDS011;1599;51.564;6.990;2023-11-19T08:35:03;24.00;;;4.80;;
3175;SDS011;1599;51.564;6.990;2023-11-19T08:37:30;32.77;;;5.47;;
3175;SDS011;1599;51.564;6.990;2023-11-19T08:39:56;27.50;;;5.93;;
3175;SDS011;1599;51.564;6.990;2023-11-19T08:42:21;24.30;;;5.73;;
3175;SDS011;1599;51.564;6.990;2023-11-19T08:44:50;24.33;;;6.27;;
3175;SDS011;1599;51.564;6.990;2023-11-19T08:47:19;24.20;;;6.50;;
3175;SDS011;1599;51.564;6.990;2023-11-19T08:49:45;35.57;;;6.93;;
3175;SDS011;1599;51.564;6.990;2023-11-19T08:52:11;29.27;;;5.97;;
3175;SDS011;1599;51.564;6.990;2023-11-19T08:54:37;26.00;;;5.40;;
3175;SDS011;1599;51.564;6.990;2023-11-19T08:57:03;31.33;;;6.70;;
3175;SDS011;1599;51.564;6.990;2023-11-19T08:59:29;21.10;;;6.63;;
3175;SDS011;1599;51.564;6.990;2023-11-19T09:01:55;25.33;;;7.30;;
3175;SDS011;1599;51.564;6.990;2023-11-19T09:04:22;28.33;;;6.17;;
3175;SDS011;1599;51.564;6.990;2023-11-19T09:06:48;30.57;;;5.63;;
3175;SDS011;1599;51.564;6.990;2023-11-19T09:09:14;18.00;;;6.13;;
3175;SDS011;1599;51.564;6.990;2023-11-19T09:11:40;28.63;;;7.00;;
3175;SDS011;1599;51.564;6.990;2023-11-19T09:14:06;26.00;;;7.30;;
3175;SDS011;1599;51.564;6.990;2023-11-19T09:16:32;25.73;;;5.73;;
3175;SDS011;1599;51.564;6.990;2023-11-19T09:18:58;24.63;;;8.13;;
3175;SDS011;1599;51.564;6.990;2023-11-19T09:21:25;36.07;;;7.00;;
3175;SDS011;1599;51.564;6.990;2023-11-19T09:23:51;28.97;;;5.27;;
3175;SDS011;1599;51.564;6.990;2023-11-19T09:26:19;23.83;;;6.07;;
3175;SDS011;1599;51.564;6.990;2023-11-19T09:28:44;24.83;;;5.40;;
3175;SDS011;1599;51.564;6.990;2023-11-19T09:31:14;29.30;;;6.87;;
3175;SDS011;1599;51.564;6.990;2023-11-19T09:33:43;26.67;;;5.93;;
3175;SDS011;1599;51.564;6.990;2023-11-19T09:36:11;28.60;;;6.10;;
3175;SDS011;1599;51.564;6.990;2023-11-19T09:38:42;29.30;;;5.73;;
3175;SDS011;1599;51.564;6.990;2023-11-19T09:41:11;26.47;;;6.10;;
3175;SDS011;1599;51.564;6.990;2023-11-19T09:43:41;20.57;;;5.43;;
3175;SDS011;1599;51.564;6.990;2023-11-19T09:46:11;24.37;;;5.30;;
3175;SDS011;1599;51.564;6.990;2023-11-19T09:48:40;28.10;;;5.53;;
3175;SDS011;1599;51.564;6.990;2023-11-19T09:51:07;26.30;;;5.77;;
3175;SDS011;1599;51.564;6.990;2023-11-19T09:53:36;24.87;;;6.77;;
3175;SDS011;1599;51.564;6.990;2023-11-19T09:56:03;22.53;;;5.73;;
3175;SDS011;1599;51.564;6.990;2023-11-19T09:58:30;25.47;;;6.37;;
3175;SDS011;1599;51.564;6.990;2023-11-19T10:00:57;26.03;;;6.40;;
3175;SDS011;1599;51.564;6.990;2023-11-19T10:03:25;23.93;;;5.60;;
3175;SDS011;1599;51.564;6.990;2023-11-19T10:05:54;23.40;;;6.10;;
3175;SDS011;1599;51.564;6.990;2023-11-19T10:08:21;29.47;;;5.23;;
3175;SDS011;1599;51.564;6.990;2023-11-19T10:10:47;22.17;;;5.40;;
3175;SDS011;1599;51.564;6.990;2023-11-19T10:13:13;23.80;;;5.67;;
3175;SDS011;1599;51.564;6.990;2023-11-19T10:15:39;22.13;;;5.40;;
3175;SDS011;1599;51.564;6.990;2023-11-19T10:18:06;25.00;;;4.83;;
3175;SDS011;1599;51.564;6.990;2023-11-19T10:20:35;18.80;;;5.00;;
3175;SDS011;1599;51.564;6.990;2023-11-19T10:23:02;25.23;;;5.10;;
3175;SDS011;1599;51.564;6.990;2023-11-19T10:25:28;25.70;;;4.90;;
3175;SDS011;1599;51.564;6.990;2023-11-19T10:27:55;28.00;;;5.83;;
3175;SDS011;1599;51.564;6.990;2023-11-19T10:30:22;19.63;;;4.90;;
3175;SDS011;1599;51.564;6.990;2023-11-19T10:33:10;27.73;;;5.20;;
3175;SDS011;1599;51.564;6.990;2023-11-19T10:35:56;17.13;;;6.57;;
3175;SDS011;1599;51.564;6.990;2023-11-19T10:38:23;30.80;;;6.70;;
3175;SDS011;1599;51.564;6.990;2023-11-19T10:40:50;20.67;;;5.00;;
3175;SDS011;1599;51.564;6.990;2023-11-19T10:43:18;16.10;;;4.63;;
3175;SDS011;1599;51.564;6.990;2023-11-19T10:45:45;22.27;;;5.17;;
3175;SDS011;1599;51.564;6.990;2023-11-19T10:48:10;23.87;;;6.20;;
3175;SDS011;1599;51.564;6.990;2023-11-19T10:50:38;20.53;;;4.83;;
3175;SDS011;1599;51.564;6.990;2023-11-19T10:53:07;29.50;;;5.03;;
3175;SDS011;1599;51.564;6.990;2023-11-19T10:55:36;22.30;;;7.17;;
3175;SDS011;1599;51.564;6.990;2023-11-19T10:58:06;19.63;;;5.20;;
3175;SDS011;1599;51.564;6.990;2023-11-19T11:03:25;30.67;;;6.27;;
3175;SDS011;1599;51.564;6.990;2023-11-19T11:06:00;15.03;;;5.50;;
3175;SDS011;1599;51.564;6.990;2023-11-19T11:08:29;28.97;;;7.20;;
3175;SDS011;1599;51.564;6.990;2023-11-19T11:10:55;23.80;;;3.87;;
3175;SDS011;1599;51.564;6.990;2023-11-19T11:13:23;18.43;;;5.90;;
3175;SDS011;1599;51.564;6.990;2023-11-19T11:15:50;17.30;;;5.23;;
3175;SDS011;1599;51.564;6.990;2023-11-19T11:18:16;21.50;;;8.23;;
3175;SDS011;1599;51.564;6.990;2023-11-19T11:20:46;19.67;;;7.23;;
3175;SDS011;1599;51.564;6.990;2023-11-19T11:34:31;20.27;;;4.43;;
3175;SDS011;1599;51.564;6.990;2023-11-19T11:37:21;25.23;;;6.03;;
3175;SDS011;1599;51.564;6.990;2023-11-19T11:39:59;17.10;;;5.17;;
3175;SDS011;1599;51.564;6.990;2023-11-19T11:42:35;25.10;;;5.97;;
3175;SDS011;1599;51.564;6.990;2023-11-19T11:45:11;22.20;;;4.97;;
3175;SDS011;1599;51.564;6.990;2023-11-19T11:50:19;19.43;;;5.80;;
3175;SDS011;1599;51.564;6.990;2023-11-19T11:58:02;18.77;;;5.00;;
3175;SDS011;1599;51.564;6.990;2023-11-19T12:00:30;18.77;;;4.13;;
3175;SDS011;1599;51.564;6.990;2023-11-19T12:03:01;14.43;;;3.60;;
3175;SDS011;1599;51.564;6.990;2023-11-19T12:05:27;16.97;;;3.90;;
3175;SDS011;1599;51.564;6.990;2023-11-19T12:07:55;18.70;;;4.63;;
3175;SDS011;1599;51.564;6.990;2023-11-19T12:10:28;14.33;;;4.50;;
3175;SDS011;1599;51.564;6.990;2023-11-19T12:12:58;15.23;;;3.60;;
3175;SDS011;1599;51.564;6.990;2023-11-19T12:15:25;18.33;;;4.43;;
3175;SDS011;1599;51.564;6.990;2023-11-19T12:17:53;16.57;;;7.50;;
3175;SDS011;1599;51.564;6.990;2023-11-19T12:20:20;16.00;;;4.53;;
3175;SDS011;1599;51.564;6.990;2023-11-19T12:22:51;14.83;;;3.03;;
3175;SDS011;1599;51.564;6.990;2023-11-19T12:25:18;14.97;;;5.07;;
3175;SDS011;1599;51.564;6.990;2023-11-19T12:27:46;13.17;;;4.07;;
3175;SDS011;1599;51.564;6.990;2023-11-19T12:30:17;16.03;;;3.40;;
3175;SDS011;1599;51.564;6.990;2023-11-19T12:32:48;16.03;;;4.53;;
3175;SDS011;1599;51.564;6.990;2023-11-19T12:35:14;16.20;;;5.40;;
3175;SDS011;1599;51.564;6.990;2023-11-19T12:37:40;23.07;;;7.57;;
3175;SDS011;1599;51.564;6.990;2023-11-19T12:40:12;17.60;;;5.00;;
3175;SDS011;1599;51.564;6.990;2023-11-19T12:42:49;20.20;;;4.40;;
3175;SDS011;1599;51.564;6.990;2023-11-19T12:45:17;17.17;;;6.77;;
3175;SDS011;1599;51.564;6.990;2023-11-19T12:47:46;13.23;;;4.47;;
3175;SDS011;1599;51.564;6.990;2023-11-19T12:50:13;20.20;;;5.50;;
3175;SDS011;1599;51.564;6.990;2023-11-19T12:52:40;14.70;;;3.80;;
3175;SDS011;1599;51.564;6.990;2023-11-19T12:55:25;17.23;;;5.60;;
3175;SDS011;1599;51.564;6.990;2023-11-19T12:57:52;12.33;;;3.43;;
3175;SDS011;1599;51.564;6.990;2023-11-19T13:00:23;19.27;;;4.57;;
3175;SDS011;1599;51.564;6.990;2023-11-19T13:02:53;23.00;;;5.47;;
3175;SDS011;1599;51.564;6.990;2023-11-19T13:08:02;22.87;;;5.50;;
3175;SDS011;1599;51.564;6.990;2023-11-19T13:10:30;13.87;;;4.30;;
3175;SDS011;1599;51.564;6.990;2023-11-19T13:13:16;13.30;;;4.23;;
3175;SDS011;1599;51.564;6.990;2023-11-19T13:15:42;21.37;;;4.80;;
3175;SDS011;1599;51.564;6.990;2023-11-19T13:18:09;24.33;;;5.13;;
3175;SDS011;1599;51.564;6.990;2023-11-19T13:20:36;13.30;;;7.13;;
3175;SDS011;1599;51.564;6.990;2023-11-19T13:23:05;26.10;;;6.13;;
3175;SDS011;1599;51.564;6.990;2023-11-19T13:25:35;16.80;;;4.70;;
3175;SDS011;1599;51.564;6.990;2023-11-19T13:28:01;13.57;;;3.80;;
3175;SDS011;1599;51.564;6.990;2023-11-19T13:30:27;16.07;;;4.40;;
3175;SDS011;1599;51.564;6.990;2023-11-19T13:32:54;16.57;;;6.30;;
3175;SDS011;1599;51.564;6.990;2023-11-19T13:35:21;12.13;;;3.33;;
3175;SDS011;1599;51.564;6.990;2023-11-19T13:37:50;23.53;;;4.60;;
3175;SDS011;1599;51.564;6.990;2023-11-19T13:40:16;16.30;;;4.10;;
3175;SDS011;1599;51.564;6.990;2023-11-19T13:42:42;16.70;;;4.73;;
3175;SDS011;1599;51.564;6.990;2023-11-19T13:45:09;18.67;;;4.90;;
3175;SDS011;1599;51.564;6.990;2023-11-19T13:47:40;12.73;;;3.67;;
3175;SDS011;1599;51.564;6.990;2023-11-19T13:50:11;16.30;;;3.70;;
3175;SDS011;1599;51.564;6.990;2023-11-19T13:52:39;14.00;;;4.33;;
3175;SDS011;1599;51.564;6.990;2023-11-19T13:55:08;18.83;;;5.27;;
3175;SDS011;1599;51.564;6.990;2023-11-19T13:57:35;17.53;;;4.17;;
3175;SDS011;1599;51.564;6.990;2023-11-19T14:00:03;24.07;;;9.30;;
3175;SDS011;1599;51.564;6.990;2023-11-19T14:02:32;18.70;;;7.37;;
3175;SDS011;1599;51.564;6.990;2023-11-19T14:04:58;16.20;;;5.57;;
3175;SDS011;1599;51.564;6.990;2023-11-19T14:07:25;17.00;;;5.50;;
3175;SDS011;1599;51.564;6.990;2023-11-19T14:09:51;30.13;;;11.90;;
3175;SDS011;1599;51.564;6.990;2023-11-19T14:12:17;18.90;;;5.47;;
3175;SDS011;1599;51.564;6.990;2023-11-19T14:14:43;15.20;;;7.00;;
3175;SDS011;1599;51.564;6.990;2023-11-19T14:17:09;15.43;;;6.67;;
3175;SDS011;1599;51.564;6.990;2023-11-19T14:19:36;17.87;;;5.20;;
3175;SDS011;1599;51.564;6.990;2023-11-19T14:22:04;17.07;;;4.70;;
3175;SDS011;1599;51.564;6.990;2023-11-19T14:24:31;14.33;;;5.77;;
3175;SDS011;1599;51.564;6.990;2023-11-19T14:26:56;18.20;;;4.50;;
3175;SDS011;1599;51.564;6.990;2023-11-19T14:29:24;16.47;;;5.40;;
3175;SDS011;1599;51.564;6.990;2023-11-19T14:31:51;13.50;;;5.07;;
3175;SDS011;1599;51.564;6.990;2023-11-19T14:34:19;16.70;;;6.10;;
3175;SDS011;1599;51.564;6.990;2023-11-19T14:36:45;16.60;;;5.50;;
3175;SDS011;1599;51.564;6.990;2023-11-19T14:39:12;23.60;;;6.17;;
3175;SDS011;1599;51.564;6.990;2023-11-19T14:41:38;23.37;;;4.70;;
3175;SDS011;1599;51.564;6.990;2023-11-19T14:44:04;19.13;;;7.47;;
3175;SDS011;1599;51.564;6.990;2023-11-19T14:46:30;21.20;;;6.47;;
3175;SDS011;1599;51.564;6.990;2023-11-19T14:48:56;23.50;;;7.10;;
3175;SDS011;1599;51.564;6.990;2023-11-19T14:51:22;19.30;;;5.87;;
3175;SDS011;1599;51.564;6.990;2023-11-19T14:53:48;15.77;;;5.90;;
3175;SDS011;1599;51.564;6.990;2023-11-19T14:56:14;14.17;;;5.30;;
3175;SDS011;1599;51.564;6.990;2023-11-19T14:58:40;19.47;;;4.80;;
3175;SDS011;1599;51.564;6.990;2023-11-19T15:01:07;18.80;;;5.77;;
3175;SDS011;1599;51.564;6.990;2023-11-19T15:03:37;19.93;;;6.27;;
3175;SDS011;1599;51.564;6.990;2023-11-19T15:06:03;19.33;;;5.20;;
3175;SDS011;1599;51.564;6.990;2023-11-19T15:08:29;14.73;;;5.63;;
3175;SDS011;1599;51.564;6.990;2023-11-19T15:10:55;24.67;;;7.40;;
3175;SDS011;1599;51.564;6.990;2023-11-19T15:13:23;30.13;;;6.97;;
3175;SDS011;1599;51.564;6.990;2023-11-19T15:15:49;20.63;;;6.90;;
3175;SDS011;1599;51.564;6.990;2023-11-19T15:18:15;18.77;;;5.30;;
3175;SDS011;1599;51.564;6.990;2023-11-19T15:20:42;31.03;;;5.90;;
3175;SDS011;1599;51.564;6.990;2023-11-19T15:23:12;26.87;;;7.00;;
3175;SDS011;1599;51.564;6.990;2023-11-19T15:25:41;25.40;;;6.20;;